Time;durP1;ratioP1;P1;durP2;ratioP2;P2;SDS_P1;SDS_P2;PMS_P1;PMS_P2;Temp;Humidity;BMP_temperature;BMP_pressure;BME280_temperature;BME280_humidity;BME280_pressure;Samples;Min_cycle;Max_cycle;Signal;HPM_P1;HPM_P2
2023/04/19 00:01:07;;;;;;;25.57;13.93;;;;;;;9.42;87.30;102669.63;4949028;28;20053;-86
2023/04/19 00:03:32;;;;;;;20.90;13.02;;;;;;;9.44;86.99;102667.94;4940718;28;20291;-86
2023/04/19 00:06:01;;;;;;;23.15;13.75;;;;;;;9.44;87.21;102661.03;4953759;28;20027;-86
2023/04/19 00:08:26;;;;;;;23.02;13.38;;;;;;;9.47;87.63;102663.69;4964469;28;20023;-86
2023/04/19 00:10:52;;;;;;;22.98;14.25;;;;;;;9.48;87.23;102667.13;4955488;28;20082;-86
2023/04/19 00:13:17;;;;;;;24.30;13.75;;;;;;;9.52;87.22;102663.72;4972917;28;20077;-87
2023/04/19 00:15:42;;;;;;;22.20;14.00;;;;;;;9.53;87.27;102660.28;4971177;28;20027;-87
2023/04/19 00:18:08;;;;;;;24.08;13.65;;;;;;;9.54;87.41;102664.59;4971471;28;20037;-87
2023/04/19 00:20:33;;;;;;;23.92;14.07;;;;;;;9.56;87.24;102656.81;4951138;28;20507;-86
2023/04/19 00:22:58;;;;;;;22.55;13.35;;;;;;;9.59;86.90;102667.22;4952940;28;20138;-86
2023/04/19 00:25:24;;;;;;;23.08;13.48;;;;;;;9.60;87.32;102656.03;4970011;28;20464;-87
2023/04/19 00:27:49;;;;;;;25.33;14.27;;;;;;;9.61;87.42;102655.16;4971997;28;20056;-86
2023/04/19 00:30:15;;;;;;;22.40;13.35;;;;;;;9.63;87.63;102658.63;4970558;28;20456;-86
2023/04/19 00:32:40;;;;;;;24.23;13.85;;;;;;;9.62;87.60;102651.75;4970378;28;20561;-86
2023/04/19 00:35:05;;;;;;;25.65;14.25;;;;;;;9.61;87.02;102647.41;4950408;28;20049;-87
2023/04/19 00:37:31;;;;;;;23.90;13.90;;;;;;;9.62;87.55;102649.16;4972453;28;20786;-87
2023/04/19 00:39:56;;;;;;;21.38;13.55;;;;;;;9.64;87.44;102650.88;4972220;28;20024;-86
2023/04/19 00:42:21;;;;;;;22.83;13.13;;;;;;;9.66;87.91;102651.75;4950488;28;20073;-87
2023/04/19 00:44:46;;;;;;;23.00;13.73;;;;;;;9.65;87.26;102650.03;4969995;28;20370;-86
2023/04/19 00:47:13;;;;;;;23.55;14.27;;;;;;;9.66;87.94;102651.75;4970061;28;20290;-86
2023/04/19 00:49:39;;;;;;;24.05;14.13;;;;;;;9.69;87.75;102644.00;4953108;28;20475;-87
2023/04/19 00:52:05;;;;;;;23.52;14.18;;;;;;;9.70;87.61;102648.34;4969259;28;20035;-87
2023/04/19 00:54:32;;;;;;;25.58;14.50;;;;;;;9.69;88.05;102645.75;4968386;28;20076;-87
2023/04/19 00:56:57;;;;;;;24.17;14.18;;;;;;;9.69;87.96;102646.59;4963854;28;20042;-87
2023/04/19 00:59:23;;;;;;;22.50;13.57;;;;;;;9.71;88.75;102651.78;4969313;28;20038;-87
2023/04/19 01:01:49;;;;;;;23.52;14.02;;;;;;;9.69;88.89;102653.53;4969216;28;20286;-87
2023/04/19 01:04:15;;;;;;;24.73;13.75;;;;;;;9.67;88.83;102642.28;4970036;28;20031;-87
2023/04/19 01:06:41;;;;;;;24.23;14.00;;;;;;;9.68;88.61;102641.44;4945469;28;20049;-87
2023/04/19 01:09:06;;;;;;;24.08;13.77;;;;;;;9.68;89.03;102644.03;4969353;28;20400;-87
2023/04/19 01:11:31;;;;;;;23.98;13.88;;;;;;;9.70;89.17;102637.97;4957710;28;20407;-87
2023/04/19 01:13:57;;;;;;;23.92;13.05;;;;;;;9.68;89.29;102636.25;4971360;28;20031;-86
2023/04/19 01:16:25;;;;;;;24.02;13.77;;;;;;;9.70;89.86;102645.75;4971166;28;20039;-86
2023/04/19 01:19:41;;;;;;;23.00;13.93;;;;;;;9.72;89.66;102641.47;4968820;28;20499;-88
2023/04/19 01:22:31;;;;;;;23.02;13.30;;;;;;;9.72;89.48;102633.69;4968667;28;20046;-88
2023/04/19 01:24:57;;;;;;;23.55;13.40;;;;;;;9.72;90.27;102636.28;4950723;28;20400;-88
2023/04/19 01:33:04;;;;;;;24.08;14.05;;;;;;;9.71;90.76;102626.78;4969154;28;20138;-87
2023/04/19 01:35:30;;;;;;;25.15;14.40;;;;;;;9.74;90.90;102628.53;4947810;28;20153;-86
2023/04/19 01:37:55;;;;;;;26.53;14.23;;;;;;;9.74;91.22;102623.34;4970384;28;20022;-87
2023/04/19 01:40:24;;;;;;;24.20;13.82;;;;;;;9.78;91.28;102627.69;4968220;28;20337;-86
2023/04/19 01:42:50;;;;;;;24.95;14.18;;;;;;;9.79;91.31;102627.72;4971159;28;20033;-86
2023/04/19 01:45:15;;;;;;;24.17;13.68;;;;;;;9.76;90.78;102611.25;4964992;28;20031;-87
2023/04/19 01:47:40;;;;;;;25.08;14.32;;;;;;;9.81;91.35;102617.38;4953633;28;20103;-87
2023/04/19 01:50:06;;;;;;;23.35;14.25;;;;;;;9.84;91.70;102626.00;4969020;28;20591;-87
2023/04/19 01:52:31;;;;;;;23.73;14.10;;;;;;;9.85;92.07;102622.56;4969551;28;20099;-86
2023/04/19 01:54:57;;;;;;;24.58;14.82;;;;;;;9.85;91.49;102622.56;4970742;28;20057;-86
2023/04/19 01:57:22;;;;;;;24.90;14.45;;;;;;;9.85;92.12;102611.34;4970300;28;20174;-86
2023/04/19 01:59:48;;;;;;;26.35;14.52;;;;;;;9.90;91.50;102626.06;4952597;28;20045;-86
2023/04/19 02:02:13;;;;;;;25.40;14.48;;;;;;;9.89;91.90;102618.31;4977219;28;20039;-86
2023/04/19 02:04:38;;;;;;;27.33;14.82;;;;;;;9.89;92.11;102613.13;4957305;28;20094;-87
2023/04/19 02:07:03;;;;;;;25.92;14.52;;;;;;;9.91;92.43;102619.16;4973562;28;20054;-86
2023/04/19 02:09:29;;;;;;;25.58;14.23;;;;;;;9.90;92.01;102615.69;4974585;28;20587;-87
2023/04/19 02:11:54;;;;;;;27.23;15.10;;;;;;;9.89;92.53;102619.13;4970215;28;20062;-87
2023/04/19 02:14:23;;;;;;;23.88;14.13;;;;;;;9.87;92.69;102615.69;4965993;28;20060;-88
2023/04/19 02:16:48;;;;;;;24.83;14.82;;;;;;;9.85;92.80;102611.34;4977961;28;20420;-86
2023/04/19 02:19:13;;;;;;;23.57;14.33;;;;;;;9.85;93.06;102611.34;4956130;28;20476;-86
2023/04/19 02:21:38;;;;;;;26.38;15.00;;;;;;;9.85;93.30;102613.94;4978170;28;20269;-86
2023/04/19 02:24:04;;;;;;;27.08;14.65;;;;;;;9.79;93.49;102607.00;4977310;28;20164;-86
2023/04/19 02:26:29;;;;;;;24.55;14.35;;;;;;;9.83;93.43;102615.63;4976735;28;20033;-86
2023/04/19 02:28:54;;;;;;;25.83;14.43;;;;;;;9.82;93.06;102621.69;4969639;28;20051;-86
2023/04/19 02:31:20;;;;;;;22.77;13.67;;;;;;;9.81;93.35;102620.84;4975844;28;20304;-86
2023/04/19 02:33:45;;;;;;;23.10;14.50;;;;;;;9.79;92.84;102625.13;4976518;28;20774;-86
2023/04/19 02:36:11;;;;;;;21.85;13.55;;;;;;;9.79;92.96;102619.94;4976917;28;20128;-86
2023/04/19 02:38:36;;;;;;;24.65;13.50;;;;;;;9.78;93.39;102612.16;4955919;28;20073;-86
2023/04/19 02:41:03;;;;;;;22.90;13.75;;;;;;;9.77;93.28;102613.00;4970860;28;20484;-86
2023/04/19 02:43:28;;;;;;;23.45;13.15;;;;;;;9.77;93.62;102616.47;4951887;28;20484;-87
2023/04/19 02:45:54;;;;;;;23.98;14.32;;;;;;;9.73;93.11;102617.31;4970062;28;20034;-86
2023/04/19 02:48:19;;;;;;;22.65;13.80;;;;;;;9.76;92.99;102619.03;4956004;28;20121;-87
2023/04/19 02:50:44;;;;;;;23.70;13.80;;;;;;;9.72;92.94;102619.88;4974367;28;20057;-87
2023/04/19 02:53:09;;;;;;;25.00;13.52;;;;;;;9.70;93.58;102624.16;4958521;28;20030;-87
2023/04/19 02:55:35;;;;;;;22.73;13.00;;;;;;;9.68;93.46;102621.59;4973719;28;20047;-87
2023/04/19 02:58:00;;;;;;;23.38;13.13;;;;;;;9.64;93.94;102630.16;4951108;28;20030;-87
2023/04/19 03:00:26;;;;;;;21.13;13.15;;;;;;;9.64;93.37;102619.81;4975902;28;20185;-88
2023/04/19 03:02:51;;;;;;;24.73;13.57;;;;;;;9.61;94.08;102619.78;4975628;28;20133;-88
2023/04/19 03:05:16;;;;;;;21.15;12.73;;;;;;;9.60;93.80;102614.59;4974980;28;20104;-86
2023/04/19 03:07:42;;;;;;;25.90;13.40;;;;;;;9.61;94.16;102616.34;4976417;28;20495;-85
2023/04/19 03:10:08;;;;;;;22.43;13.13;;;;;;;9.59;94.13;102613.72;4964927;28;20038;-86
2023/04/19 03:12:33;;;;;;;20.75;11.95;;;;;;;9.60;93.98;102615.47;4952302;28;20294;-86
2023/04/19 03:14:58;;;;;;;21.35;12.80;;;;;;;9.62;93.88;102615.50;4971553;28;20046;-86
2023/04/19 03:17:23;;;;;;;21.17;12.63;;;;;;;9.61;94.00;102611.16;4972823;28;20045;-86
2023/04/19 03:19:49;;;;;;;22.20;12.97;;;;;;;9.62;93.91;102616.31;4968377;28;20537;-86
2023/04/19 03:22:14;;;;;;;22.00;13.23;;;;;;;9.61;93.60;102612.03;4964572;28;20297;-87
2023/04/19 03:24:39;;;;;;;23.20;13.30;;;;;;;9.60;94.21;102607.69;4963506;28;20314;-87
2023/04/19 03:27:05;;;;;;;20.90;13.40;;;;;;;9.59;93.98;102608.56;4971411;28;20289;-87
2023/04/19 03:29:30;;;;;;;22.25;12.85;;;;;;;9.60;94.30;102606.84;4948099;28;20105;-87
2023/04/19 03:31:55;;;;;;;21.85;12.68;;;;;;;9.60;93.81;102607.69;4969309;28;20407;-86
2023/04/19 03:34:21;;;;;;;20.80;12.13;;;;;;;9.59;93.49;102607.69;4973191;28;20123;-86
2023/04/19 03:36:46;;;;;;;20.27;12.63;;;;;;;9.57;93.80;102606.78;4971261;28;20329;-86
2023/04/19 03:39:11;;;;;;;22.23;12.75;;;;;;;9.58;93.62;102600.75;4943269;29;20445;-86
2023/04/19 03:41:39;;;;;;;22.17;12.82;;;;;;;9.56;94.03;102605.06;4965419;28;20047;-86
2023/04/19 03:44:04;;;;;;;21.20;12.05;;;;;;;9.57;93.69;102609.38;4950909;28;20039;-87
2023/04/19 03:46:30;;;;;;;22.83;12.57;;;;;;;9.55;93.86;102603.34;4972641;28;20498;-87
2023/04/19 03:48:56;;;;;;;23.00;12.82;;;;;;;9.55;93.97;102606.81;4972108;28;20034;-87
2023/04/19 03:51:21;;;;;;;20.95;12.65;;;;;;;9.55;93.69;102621.47;4972989;28;20037;-86
2023/04/19 03:53:46;;;;;;;20.45;12.65;;;;;;;9.52;94.37;102617.13;4972926;28;20037;-87
2023/04/19 03:56:12;;;;;;;20.03;12.30;;;;;;;9.50;93.60;102609.31;4970815;28;20051;-87
2023/04/19 03:58:37;;;;;;;19.55;11.48;;;;;;;9.50;93.59;102605.88;4970489;28;20791;-87
2023/04/19 04:01:02;;;;;;;19.83;11.98;;;;;;;9.47;93.80;102603.28;4971154;28;20501;-86
2023/04/19 04:03:28;;;;;;;21.80;12.48;;;;;;;9.44;94.10;102609.28;4972699;28;20031;-86
2023/04/19 04:05:53;;;;;;;21.58;11.90;;;;;;;9.44;93.79;102608.41;4965037;28;20047;-87
2023/04/19 04:08:18;;;;;;;20.60;11.33;;;;;;;9.44;93.14;102617.03;4954661;28;20023;-86
2023/04/19 04:10:44;;;;;;;21.92;11.88;;;;;;;9.39;93.58;102610.09;4969568;28;20662;-86
2023/04/19 04:13:59;;;;;;;18.95;11.63;;;;;;;9.41;92.96;102619.63;4967756;28;20065;-87
2023/04/19 04:17:15;;;;;;;18.55;11.30;;;;;;;9.37;92.75;102607.47;4970138;28;20415;-87
2023/04/19 04:19:40;;;;;;;19.73;10.57;;;;;;;9.32;92.78;102613.47;4968226;28;20050;-86
2023/04/19 04:22:06;;;;;;;19.15;11.07;;;;;;;9.26;92.22;102613.41;4971066;28;20045;-86
2023/04/19 04:24:37;;;;;;;16.77;10.73;;;;;;;9.17;92.25;102606.41;4954638;28;20480;-85
2023/04/19 04:27:02;;;;;;;18.05;10.45;;;;;;;9.11;92.64;102612.41;4970259;28;20059;-86
2023/04/19 04:29:27;;;;;;;19.27;10.52;;;;;;;9.06;93.02;102619.25;4970942;28;20082;-86
2023/04/19 04:31:53;;;;;;;17.30;10.00;;;;;;;8.99;92.07;102624.34;4968815;28;20150;-86
2023/04/19 04:34:19;;;;;;;17.08;9.70;;;;;;;8.90;91.90;102622.50;4948658;28;20043;-86
2023/04/19 04:36:44;;;;;;;16.30;9.63;;;;;;;8.86;92.80;102622.47;4971100;28;20035;-86
2023/04/19 04:39:11;;;;;;;17.00;9.15;;;;;;;8.77;92.43;102623.22;4952419;28;20059;-86
2023/04/19 04:41:40;;;;;;;17.17;9.18;;;;;;;8.73;92.87;102618.00;4969986;28;20106;-86
2023/04/19 04:44:05;;;;;;;16.70;9.98;;;;;;;8.69;92.76;102628.28;4967960;28;20046;-86
2023/04/19 04:46:30;;;;;;;15.88;9.30;;;;;;;8.65;93.42;102618.75;4971388;28;20376;-87
2023/04/19 04:48:56;;;;;;;16.45;9.00;;;;;;;8.61;93.18;102618.69;4967879;28;20046;-86
2023/04/19 04:51:21;;;;;;;17.67;9.27;;;;;;;8.55;93.71;102619.47;4971687;28;20033;-86
2023/04/19 04:53:46;;;;;;;15.38;9.27;;;;;;;8.53;93.95;102621.16;4968931;28;20290;-86
2023/04/19 04:56:11;;;;;;;14.52;8.93;;;;;;;8.52;94.68;102619.44;4970972;28;20027;-86
2023/04/19 04:58:37;;;;;;;16.50;9.30;;;;;;;8.51;94.12;102627.19;4971196;28;20065;-86
2023/04/19 05:01:02;;;;;;;15.63;9.15;;;;;;;8.47;93.95;102620.22;4969685;28;20383;-86
2023/04/19 05:03:28;;;;;;;14.52;9.10;;;;;;;8.42;94.94;102617.56;4971214;28;20391;-85
2023/04/19 05:05:53;;;;;;;17.42;9.63;;;;;;;8.43;94.59;102618.44;4968297;28;20042;-86
2023/04/19 05:08:19;;;;;;;17.48;9.80;;;;;;;8.40;94.73;102623.56;4971041;28;20027;-86
2023/04/19 05:10:44;;;;;;;15.88;9.70;;;;;;;8.34;95.16;102619.19;4969083;28;20047;-86
2023/04/19 05:13:09;;;;;;;20.58;9.90;;;;;;;8.35;95.38;102620.06;4970220;28;20397;-86
2023/04/19 05:15:35;;;;;;;18.15;9.68;;;;;;;8.36;94.89;102625.25;4966657;28;20314;-86
2023/04/19 05:18:01;;;;;;;16.13;9.52;;;;;;;8.34;94.84;102626.94;4954359;28;20126;-86
2023/04/19 05:20:28;;;;;;;15.45;9.30;;;;;;;8.34;94.26;102634.69;4968818;28;20393;-86
2023/04/19 05:22:57;;;;;;;16.50;9.27;;;;;;;8.35;94.29;102628.66;4967518;28;20040;-86
2023/04/19 05:25:22;;;;;;;17.60;9.50;;;;;;;8.33;94.56;102636.41;4954604;28;20026;-86
2023/04/19 05:27:48;;;;;;;19.15;9.48;;;;;;;8.32;94.66;102645.00;4972677;28;20428;-86
2023/04/19 05:30:13;;;;;;;15.60;9.17;;;;;;;8.32;93.88;102634.66;4972321;28;20105;-85
2023/04/19 05:32:39;;;;;;;16.60;9.23;;;;;;;8.33;94.12;102633.81;4972547;28;20485;-86
2023/04/19 05:35:04;;;;;;;18.42;9.05;;;;;;;8.36;93.96;102635.59;4971611;28;20143;-87
2023/04/19 05:37:30;;;;;;;17.33;9.38;;;;;;;8.45;92.76;102640.91;4970628;28;20558;-86
2023/04/19 05:39:56;;;;;;;14.90;8.30;;;;;;;8.51;92.09;102638.38;4954713;28;20096;-86
2023/04/19 05:42:21;;;;;;;14.32;8.70;;;;;;;8.62;93.49;102638.53;4972036;28;20278;-86
2023/04/19 05:44:46;;;;;;;15.52;8.52;;;;;;;8.71;91.62;102630.88;4954771;28;20019;-86
2023/04/19 05:47:12;;;;;;;14.20;8.65;;;;;;;8.82;89.28;102641.34;4971938;28;20420;-87
2023/04/19 05:52:12;;;;;;;17.98;8.77;;;;;;;8.93;88.05;102638.06;5167326;23;20503;-86
2023/04/19 05:57:21;;;;;;;15.13;7.73;;;;;;;9.07;85.57;102633.06;4911975;29;20068;-86
2023/04/19 05:59:47;;;;;;;12.93;7.90;;;;;;;9.14;85.15;102627.09;4911703;29;20299;-86
2023/04/19 06:05:34;;;;;;;13.07;7.82;;;;;;;9.41;81.91;102636.88;4914092;29;20099;-86
2023/04/19 06:08:18;;;;;;;16.23;7.63;;;;;;;9.45;82.42;102639.50;4892319;29;20564;-86
2023/04/19 06:10:46;;;;;;;16.42;9.07;;;;;;;9.47;79.98;102642.09;4903663;29;20336;-86
2023/04/19 06:13:12;;;;;;;17.48;8.50;;;;;;;9.40;80.06;102633.41;4914451;29;20537;-86
2023/04/19 06:18:59;;;;;;;12.90;7.78;;;;;;;9.43;79.99;102651.53;4914625;29;20039;-86
2023/04/19 06:21:25;;;;;;;14.77;8.35;;;;;;;9.44;79.04;102642.06;4914475;29;20028;-87
2023/04/19 06:24:10;;;;;;;12.85;7.47;;;;;;;9.42;78.81;102649.78;4914184;29;20127;-86
2023/04/19 06:26:35;;;;;;;;;;;;;;;9.44;79.54;102644.63;4914549;29;20020;-85
2023/04/19 06:29:20;;;;;;;13.90;7.93;;;;;;;9.41;78.06;102636.88;4914636;29;20260;-86
2023/04/19 06:34:30;;;;;;;14.98;7.93;;;;;;;9.61;76.42;102640.50;4914876;29;20066;-87
2023/04/19 06:37:14;;;;;;;11.93;7.55;;;;;;;10.16;75.07;102641.81;4914706;29;20532;-86
2023/04/19 06:42:42;;;;;;;15.93;7.60;;;;;;;10.90;70.18;102636.19;4914769;29;20061;-87
2023/04/19 06:45:08;;;;;;;14.05;7.30;;;;;;;10.88;70.93;102632.72;4914555;29;20024;-86
2023/04/19 06:47:33;;;;;;;14.00;7.57;;;;;;;10.74;69.69;102617.94;4915823;29;20032;-86
2023/04/19 06:50:18;;;;;;;13.85;7.78;;;;;;;10.64;70.16;102633.47;4917989;29;20259;-87
2023/04/19 07:46:45;;;;;;;10.95;7.15;;;;;;;12.71;55.47;102617.13;4946622;23;20098;-85
2023/04/19 07:49:11;;;;;;;10.85;7.20;;;;;;;13.01;55.26;102632.63;4906173;29;20044;-85
2023/04/19 07:51:36;;;;;;;12.98;7.10;;;;;;;13.29;55.79;102618.59;4907688;29;20070;-85
2023/04/19 07:54:01;;;;;;;10.20;6.82;;;;;;;13.42;52.44;102633.25;4906650;29;20131;-85
2023/04/19 07:56:26;;;;;;;11.98;7.32;;;;;;;13.30;51.64;102629.88;4902344;29;20064;-85
2023/04/19 07:58:52;;;;;;;10.60;6.70;;;;;;;13.13;52.57;102635.19;4894019;29;20038;-85
2023/04/19 08:01:17;;;;;;;12.52;7.35;;;;;;;13.33;53.19;102620.28;4907939;29;20280;-85
2023/04/19 08:03:42;;;;;;;12.23;7.05;;;;;;;14.20;53.27;102614.31;4905955;29;20040;-86
2023/04/19 08:06:08;;;;;;;11.27;6.93;;;;;;;15.06;47.83;102615.06;4907801;29;20036;-86
2023/04/19 08:08:34;;;;;;;9.70;6.75;;;;;;;15.89;46.65;102628.63;4907247;29;20276;-86
2023/04/19 08:11:01;;;;;;;12.20;7.00;;;;;;;16.45;43.83;102610.97;4907283;29;20043;-86
2023/04/19 08:13:27;;;;;;;10.77;7.25;;;;;;;17.04;44.17;102611.53;4906930;29;20107;-86
2023/04/19 08:15:52;;;;;;;10.90;6.65;;;;;;;17.52;45.89;102613.03;4908868;29;20106;-86
2023/04/19 08:18:17;;;;;;;14.07;6.80;;;;;;;17.69;41.20;102623.13;4908546;29;20519;-87
2023/04/19 08:20:45;;;;;;;12.98;7.10;;;;;;;17.58;39.95;102619.88;4908949;29;20884;-88
2023/04/19 08:23:11;;;;;;;12.88;7.13;;;;;;;17.61;40.32;102617.19;4908561;29;20028;-88
2023/04/19 08:25:37;;;;;;;10.13;7.00;;;;;;;17.55;39.59;102622.56;4896720;29;20028;-89
2023/04/19 08:28:02;;;;;;;11.05;6.65;;;;;;;17.20;39.78;102608.53;4909513;29;20028;-88
2023/04/19 08:30:28;;;;;;;10.32;6.57;;;;;;;16.88;38.98;102618.84;4896658;29;20040;-88
2023/04/19 08:32:53;;;;;;;12.63;6.90;;;;;;;16.58;40.46;102620.34;4907263;29;20087;-88
2023/04/19 08:35:19;;;;;;;12.15;6.78;;;;;;;16.50;41.04;102610.03;4909205;29;20709;-88
2023/04/19 08:37:46;;;;;;;9.48;6.22;;;;;;;16.44;41.07;102607.53;4908138;29;20615;-89
2023/04/19 08:40:12;;;;;;;14.35;6.18;;;;;;;16.31;42.07;102613.03;4909194;29;20032;-88
2023/04/19 08:42:37;;;;;;;8.50;6.00;;;;;;;16.12;40.33;102602.03;4908220;29;20059;-88
2023/04/19 08:45:07;;;;;;;14.18;6.45;;;;;;;16.23;40.07;102607.09;4903432;29;20192;-89
2023/04/19 08:47:33;;;;;;;11.55;6.07;;;;;;;16.14;40.50;102608.09;4886095;29;20043;-85
2023/04/19 08:50:03;;;;;;;9.07;5.70;;;;;;;16.29;40.84;102614.81;4902768;29;20024;-85
2023/04/19 08:52:32;;;;;;;10.02;5.72;;;;;;;16.21;39.33;102614.94;4901354;29;20753;-84
2023/04/19 08:54:57;;;;;;;10.70;5.60;;;;;;;16.18;40.38;102610.63;4901342;29;20088;-85
2023/04/19 08:57:22;;;;;;;8.88;5.78;;;;;;;16.31;39.10;102611.25;4902228;29;20033;-84
2023/04/19 08:59:54;;;;;;;9.75;5.78;;;;;;;16.24;38.44;102608.81;4902269;29;20575;-86
2023/04/19 09:02:20;;;;;;;9.25;5.57;;;;;;;16.14;38.28;102605.50;4896834;29;20032;-87
2023/04/19 09:04:45;;;;;;;10.90;5.68;;;;;;;15.88;38.94;102607.72;4900756;29;20055;-87
2023/04/19 09:07:25;;;;;;;7.67;5.43;;;;;;;15.61;40.43;102614.28;4884375;29;20035;-86
2023/04/19 09:10:07;;;;;;;9.57;5.10;;;;;;;15.46;39.98;102610.13;4900839;29;20602;-87
2023/04/19 09:12:33;;;;;;;7.57;5.32;;;;;;;15.07;40.57;102608.09;4900164;29;20068;-87
2023/04/19 09:15:01;;;;;;;7.95;4.95;;;;;;;14.82;43.51;102597.97;4901929;29;20538;-86
2023/04/19 09:17:26;;;;;;;8.35;5.03;;;;;;;14.80;42.35;102601.50;4900431;29;20179;-88
2023/04/19 09:19:51;;;;;;;10.10;5.50;;;;;;;14.61;42.23;102595.63;4901403;29;20110;-87
2023/04/19 09:22:17;;;;;;;7.55;5.22;;;;;;;14.52;43.46;102598.38;4901488;29;20292;-87
2023/04/19 09:24:42;;;;;;;8.48;5.13;;;;;;;14.26;42.94;102601.25;4901075;29;20032;-88
2023/04/19 09:27:10;;;;;;;7.13;5.20;;;;;;;14.19;44.33;102608.25;4884127;29;20033;-88
2023/04/19 09:29:36;;;;;;;7.47;4.70;;;;;;;14.10;44.52;102597.94;4902261;29;20087;-90
2023/04/19 09:32:01;;;;;;;9.55;5.07;;;;;;;14.01;45.10;102608.44;4900830;29;20118;-88
2023/04/19 09:34:29;;;;;;;9.07;5.10;;;;;;;13.95;43.71;102611.13;4900178;29;20038;-89
2023/04/19 09:36:55;;;;;;;11.70;4.88;;;;;;;13.95;45.44;102605.03;4901598;29;20028;-88
2023/04/19 09:39:30;;;;;;;11.30;5.10;;;;;;;13.97;45.71;102605.88;4889298;29;20099;-88
2023/04/19 09:41:57;;;;;;;8.38;4.90;;;;;;;13.96;43.68;102599.81;4888649;29;20044;-89
2023/04/19 09:44:22;;;;;;;9.93;4.95;;;;;;;13.92;45.07;102600.69;4900673;29;20500;-88
2023/04/19 09:46:50;;;;;;;8.63;5.00;;;;;;;13.84;44.28;102589.50;4901149;29;20052;-88
2023/04/19 09:49:22;;;;;;;8.27;5.00;;;;;;;13.67;43.43;102605.28;4900228;29;20318;-89
2023/04/19 09:51:51;;;;;;;8.70;4.95;;;;;;;13.48;43.46;102603.69;4888438;29;20047;-87
2023/04/19 09:54:19;;;;;;;8.60;4.88;;;;;;;13.41;43.77;102600.28;4882608;29;20746;-87
2023/04/19 09:56:45;;;;;;;9.98;4.90;;;;;;;13.38;44.10;102592.47;4881966;29;20126;-86
2023/04/19 09:59:11;;;;;;;8.20;4.38;;;;;;;13.45;46.16;102598.50;4899718;29;20028;-86
2023/04/19 10:01:50;;;;;;;12.20;4.65;;;;;;;13.48;43.85;102597.63;4897977;29;20513;-85
2023/04/19 10:04:20;;;;;;;7.38;4.07;;;;;;;13.49;43.20;102608.03;4897554;29;20417;-85
2023/04/19 10:06:53;;;;;;;5.68;3.78;;;;;;;13.49;44.03;102581.13;4898041;29;20167;-86
2023/04/19 10:09:22;;;;;;;9.60;3.63;;;;;;;13.58;41.85;102591.47;4900706;29;20028;-85
2023/04/19 10:11:52;;;;;;;6.25;3.05;;;;;;;13.60;40.25;102584.50;4883767;29;20032;-86
2023/04/19 10:14:23;;;;;;;9.05;2.63;;;;;;;13.62;40.10;102596.63;4900004;29;20044;-87
2023/04/19 10:16:49;;;;;;;6.57;2.90;;;;;;;13.74;39.17;102595.66;4900019;29;20028;-86
2023/04/19 10:19:16;;;;;;;7.05;2.63;;;;;;;13.71;38.98;102583.53;4899832;29;20538;-85
2023/04/19 10:21:42;;;;;;;7.15;2.92;;;;;;;13.73;38.56;102591.31;4901994;29;20032;-86
2023/04/19 10:24:11;;;;;;;17.85;3.40;;;;;;;13.75;40.00;102594.78;4903616;29;20079;-86
2023/04/19 10:27:10;;;;;;;7.65;2.55;;;;;;;13.80;39.65;102577.34;4903916;29;20048;-86
2023/04/19 10:30:00;;;;;;;8.23;2.50;;;;;;;13.88;39.84;102577.28;4895715;29;20055;-86
2023/04/19 10:32:36;;;;;;;5.63;2.40;;;;;;;13.82;37.63;102584.28;4904549;29;20054;-86
2023/04/19 10:35:04;;;;;;;4.45;2.35;;;;;;;13.78;39.13;102582.56;4902765;29;20255;-85
2023/04/19 10:37:30;;;;;;;4.07;2.30;;;;;;;13.75;38.11;102586.97;4903910;29;20032;-86
2023/04/19 10:39:56;;;;;;;5.65;2.40;;;;;;;13.63;37.83;102581.88;4903771;29;20036;-85
2023/04/19 10:42:21;;;;;;;4.53;2.50;;;;;;;13.52;37.78;102568.91;4904032;29;20064;-85
2023/04/19 10:45:24;;;;;;;4.30;2.40;;;;;;;13.45;38.39;102595.88;4903207;29;20166;-85
2023/04/19 10:47:50;;;;;;;7.78;2.40;;;;;;;13.38;38.94;102576.84;4903388;29;20108;-86
2023/04/19 10:50:17;;;;;;;5.15;2.55;;;;;;;13.40;38.65;102569.88;4903345;29;20032;-85
2023/04/19 10:52:42;;;;;;;6.18;2.70;;;;;;;13.41;41.76;102571.63;4886522;29;20032;-86
2023/04/19 10:55:08;;;;;;;4.70;2.72;;;;;;;13.55;41.06;102578.47;4902499;29;20035;-86
2023/04/19 10:58:05;;;;;;;6.53;2.85;;;;;;;13.61;38.89;102574.06;4902495;29;20032;-85
2023/04/19 11:00:32;;;;;;;6.75;2.70;;;;;;;13.56;39.75;102564.56;4902659;29;20058;-86
2023/04/19 11:03:49;;;;;;;4.30;2.88;;;;;;;13.60;39.66;102567.13;4903335;29;20043;-86
2023/04/19 11:06:16;;;;;;;5.82;2.58;;;;;;;13.52;39.15;102565.44;4903489;29;20040;-85
2023/04/19 11:08:43;;;;;;;5.15;2.60;;;;;;;13.56;39.64;102565.44;4902597;29;20382;-86
2023/04/19 11:11:09;;;;;;;5.03;2.97;;;;;;;13.69;40.82;102568.78;4886051;29;20051;-85
2023/04/19 11:13:35;;;;;;;11.02;3.45;;;;;;;13.78;40.92;102561.72;4887039;29;20068;-85
2023/04/19 11:16:07;;;;;;;7.53;3.13;;;;;;;13.88;42.73;102569.47;4901147;29;20039;-85
2023/04/19 11:18:32;;;;;;;5.97;3.15;;;;;;;13.82;41.45;102560.84;4902016;29;20071;-85
2023/04/19 11:20:57;;;;;;;6.60;3.30;;;;;;;13.69;41.27;102560.97;4904000;29;20063;-85
2023/04/19 11:23:23;;;;;;;6.97;3.03;;;;;;;13.53;40.26;102551.53;4902895;29;20295;-85
2023/04/19 11:25:50;;;;;;;5.70;2.83;;;;;;;13.43;41.84;102559.47;4903347;29;20032;-86
2023/04/19 11:28:16;;;;;;;5.45;3.22;;;;;;;13.35;41.01;102540.41;4884746;29;20293;-85
2023/04/19 11:30:42;;;;;;;6.38;3.10;;;;;;;13.42;42.36;102544.69;4903360;29;20160;-85
2023/04/19 11:33:07;;;;;;;8.60;3.47;;;;;;;13.59;43.45;102543.66;4897427;29;20388;-85
2023/04/19 11:35:33;;;;;;;8.47;3.20;;;;;;;13.62;42.08;102541.91;4886193;29;20075;-85
2023/04/19 11:37:58;;;;;;;5.53;3.20;;;;;;;13.56;42.54;102525.47;4903108;29;20351;-85
2023/04/19 11:40:25;;;;;;;4.38;3.00;;;;;;;13.60;41.74;102524.56;4902414;29;20028;-85
2023/04/19 11:43:01;;;;;;;4.75;3.05;;;;;;;13.65;39.51;102518.41;4902387;29;20032;-85
2023/04/19 11:45:36;;;;;;;6.20;3.30;;;;;;;13.71;41.01;102518.38;4897080;29;20054;-86
2023/04/19 11:48:06;;;;;;;7.50;3.30;;;;;;;13.76;40.11;102516.59;4902438;29;20087;-85
2023/04/19 11:50:31;;;;;;;6.18;3.22;;;;;;;13.79;39.65;102506.13;4900726;29;20031;-85
2023/04/19 11:52:57;;;;;;;5.93;3.20;;;;;;;13.82;38.37;102505.22;4903195;29;20028;-84
2023/04/19 11:55:23;;;;;;;9.38;3.22;;;;;;;13.90;36.99;102485.16;4902649;29;20485;-85
2023/04/19 11:57:48;;;;;;;7.75;3.00;;;;;;;14.02;38.45;102500.66;4884439;29;20032;-84
2023/04/19 12:00:15;;;;;;;5.35;3.05;;;;;;;14.10;37.74;102500.56;4902697;29;20036;-85
2023/04/19 12:02:42;;;;;;;10.98;3.25;;;;;;;14.14;38.42;102490.06;4899421;29;20031;-84
2023/04/19 12:05:13;;;;;;;7.72;3.00;;;;;;;14.21;36.18;102503.91;4901898;29;20028;-85
2023/04/19 12:08:16;;;;;;;7.72;3.20;;;;;;;14.16;36.68;102488.31;4901147;29;20048;-85
2023/04/19 12:10:56;;;;;;;8.55;3.83;;;;;;;14.12;37.08;102491.88;4835991;29;20120;-85
2023/04/19 12:13:21;;;;;;;4.75;3.33;;;;;;;14.03;36.65;102473.72;4835181;29;20025;-85
2023/04/19 12:15:47;;;;;;;5.88;3.47;;;;;;;14.00;37.04;102480.69;4873006;29;20035;-85
2023/04/19 12:18:13;;;;;;;5.93;3.28;;;;;;;13.99;35.98;102471.16;4884824;29;20717;-85
2023/04/19 12:20:43;;;;;;;4.53;3.40;;;;;;;13.97;33.42;102476.41;4885139;29;20038;-85
2023/04/19 12:23:12;;;;;;;5.03;3.05;;;;;;;13.95;35.41;102480.75;4885153;29;20568;-84
2023/04/19 12:25:38;;;;;;;6.60;3.22;;;;;;;13.98;36.47;102469.44;4885802;29;20256;-85
2023/04/19 12:28:04;;;;;;;5.65;3.22;;;;;;;14.03;34.79;102463.28;4885065;29;20023;-85
2023/04/19 12:30:30;;;;;;;5.75;3.35;;;;;;;14.11;34.21;102469.28;4900851;29;20036;-85
2023/04/19 12:32:55;;;;;;;6.10;3.33;;;;;;;14.15;37.01;102470.94;4885987;29;20268;-85
2023/04/19 12:35:26;;;;;;;5.10;3.40;;;;;;;14.16;34.25;102464.00;4902114;29;20137;-85
2023/04/19 12:37:52;;;;;;;6.05;3.38;;;;;;;14.09;34.18;102468.41;4901210;29;20292;-85
2023/04/19 12:40:18;;;;;;;8.23;3.45;;;;;;;14.11;37.37;102458.84;4900575;29;20028;-85
2023/04/19 12:42:43;;;;;;;7.43;3.75;;;;;;;14.10;33.95;102454.50;4899522;29;20580;-84